Time;durP1;ratioP1;P1;durP2;ratioP2;P2;SDS_P1;SDS_P2;PMS_P1;PMS_P2;Temp;Humidity;BMP_temperature;BMP_pressure;BME280_temperature;BME280_humidity;BME280_pressure;Samples;Min_cycle;Max_cycle;Signal;HPM_P1;HPM_P2
2023/05/16 00:01:04;;;;;;;;;6.67;5.00;;;;;-147.17;100.00;-15917.19;5004416;28;51144;-63
2023/05/16 00:03:29;;;;;;;;;5.00;5.00;;;;;-147.17;100.00;-15917.19;5000856;28;51681;-63
2023/05/16 00:05:56;;;;;;;;;4.33;4.33;;;;;-147.17;100.00;-15917.19;5009394;28;51148;-61
2023/05/16 00:08:22;;;;;;;;;6.00;5.00;;;;;-147.17;100.00;-15917.19;5004118;28;51016;-62
2023/05/16 00:10:47;;;;;;;;;5.00;4.00;;;;;-147.17;100.00;-15917.19;5011695;28;50984;-64
2023/05/16 00:13:12;;;;;;;;;3.67;3.33;;;;;-147.17;100.00;-15917.19;5011708;28;51048;-63
2023/05/16 00:15:38;;;;;;;;;5.00;3.67;;;;;-147.17;100.00;-15917.19;5003172;28;51176;-62
2023/05/16 00:18:04;;;;;;;;;3.00;3.00;;;;;-147.17;100.00;-15917.19;5001800;28;51083;-62
2023/05/16 00:20:30;;;;;;;;;5.00;3.00;;;;;-147.17;100.00;-15917.19;5004326;28;51392;-63
2023/05/16 00:22:59;;;;;;;;;4.00;4.00;;;;;-147.17;100.00;-15917.19;5004109;28;51053;-63
2023/05/16 00:25:25;;;;;;;;;4.00;3.00;;;;;-147.17;100.00;-15917.19;5007914;28;51433;-63
2023/05/16 00:27:50;;;;;;;;;5.00;5.00;;;;;-147.17;100.00;-15917.19;5001666;28;50911;-62
2023/05/16 00:30:16;;;;;;;;;6.00;5.00;;;;;-147.17;100.00;-15917.19;5008038;28;51302;-62
2023/05/16 00:32:42;;;;;;;;;5.00;5.00;;;;;-147.17;100.00;-15917.19;4999412;28;51909;-61
2023/05/16 00:35:09;;;;;;;;;5.67;4.00;;;;;-147.17;100.00;-15917.19;5009141;28;52496;-62
2023/05/16 00:37:35;;;;;;;;;6.33;5.00;;;;;-147.17;100.00;-15917.19;4991280;28;51140;-62
2023/05/16 00:40:00;;;;;;;;;5.00;4.00;;;;;-147.17;100.00;-15917.19;5006525;28;51172;-63
2023/05/16 00:42:26;;;;;;;;;4.00;3.00;;;;;-147.17;100.00;-15917.19;5009554;28;52033;-63
2023/05/16 00:44:51;;;;;;;;;6.00;4.00;;;;;-147.17;100.00;-15917.19;5007275;28;51207;-63
2023/05/16 00:47:16;;;;;;;;;6.00;4.00;;;;;-147.17;100.00;-15917.19;5020571;28;51247;-62
2023/05/16 00:49:42;;;;;;;;;3.00;3.00;;;;;-147.17;100.00;-15917.19;5021989;28;51494;-62
2023/05/16 00:52:07;;;;;;;;;5.00;4.00;;;;;-147.17;100.00;-15917.19;4992384;28;51753;-62
2023/05/16 00:54:33;;;;;;;;;3.00;3.00;;;;;-147.17;100.00;-15917.19;5001643;28;51206;-62
2023/05/16 00:56:58;;;;;;;;;4.67;4.00;;;;;-147.17;100.00;-15917.19;5007166;28;51088;-64
2023/05/16 00:59:24;;;;;;;;;5.67;5.00;;;;;-147.17;100.00;-15917.19;5008508;28;51330;-62
2023/05/16 01:01:50;;;;;;;;;4.00;3.33;;;;;-147.17;100.00;-15917.19;5005865;28;51726;-61
2023/05/16 01:04:16;;;;;;;;;5.00;3.00;;;;;-147.17;100.00;-15917.19;5007767;28;51234;-62
2023/05/16 01:06:42;;;;;;;;;5.33;5.00;;;;;-147.17;100.00;-15917.19;5003235;28;51147;-62
2023/05/16 01:09:08;;;;;;;;;3.00;3.00;;;;;-147.17;100.00;-15917.19;5005026;28;51357;-63
2023/05/16 01:11:48;;;;;;;;;4.00;3.00;;;;;-147.17;100.00;-15917.19;5008233;28;51864;-63
2023/05/16 01:14:44;;;;;;;;;3.00;2.67;;;;;-147.17;100.00;-15917.19;5006200;28;51191;-63
2023/05/16 01:17:27;;;;;;;;;3.50;3.25;;;;;-147.17;100.00;-15917.19;4994284;28;51151;-62
2023/05/16 01:19:59;;;;;;;;;3.33;2.33;;;;;-147.17;100.00;-15917.19;5003211;28;51266;-63
2023/05/16 01:22:24;;;;;;;;;4.33;3.33;;;;;-147.17;100.00;-15917.19;5008591;28;53050;-62
2023/05/16 01:25:04;;;;;;;;;3.67;3.00;;;;;-147.17;100.00;-15917.19;5006073;28;51825;-62
2023/05/16 01:27:30;;;;;;;;;3.00;3.00;;;;;-147.17;100.00;-15917.19;5002077;28;51094;-63
2023/05/16 01:29:56;;;;;;;;;4.50;3.75;;;;;-147.17;100.00;-15917.19;4997575;28;51114;-62
2023/05/16 01:32:21;;;;;;;;;3.00;2.33;;;;;-147.17;100.00;-15917.19;5007086;28;51965;-63
2023/05/16 01:34:49;;;;;;;;;3.00;2.00;;;;;-147.17;100.00;-15917.19;5011647;28;51169;-62
2023/05/16 01:37:29;;;;;;;;;5.00;4.00;;;;;-147.17;100.00;-15917.19;5024142;28;51223;-63
2023/05/16 01:40:15;;;;;;;;;2.00;2.00;;;;;-147.17;100.00;-15917.19;5023661;28;51765;-62
2023/05/16 01:42:44;;;;;;;;;3.67;2.00;;;;;-147.17;100.00;-15917.19;5004858;28;51864;-62
2023/05/16 01:45:21;;;;;;;;;4.00;3.00;;;;;-147.17;100.00;-15917.19;5006140;28;51172;-62
2023/05/16 01:47:58;;;;;;;;;2.00;2.00;;;;;-147.17;100.00;-15917.19;5014298;28;51213;-62
2023/05/16 01:50:24;;;;;;;;;3.00;3.00;;;;;-147.17;100.00;-15917.19;5007722;28;50959;-62
2023/05/16 01:52:54;;;;;;;;;3.50;2.25;;;;;-147.17;100.00;-15917.19;5012118;28;53199;-63
2023/05/16 01:55:28;;;;;;;;;4.00;3.00;;;;;-147.17;100.00;-15917.19;5000105;28;51039;-62
2023/05/16 01:57:55;;;;;;;;;3.33;3.33;;;;;-147.17;100.00;-15917.19;5001659;28;51065;-62
2023/05/16 02:00:20;;;;;;;;;6.00;3.00;;;;;-147.17;100.00;-15917.19;5009721;28;51199;-62
2023/05/16 02:02:46;;;;;;;;;2.00;2.00;;;;;-147.17;100.00;-15917.19;5013796;28;53822;-63
2023/05/16 02:05:11;;;;;;;;;3.00;2.00;;;;;-147.17;100.00;-15917.19;5012317;28;51147;-61
2023/05/16 02:07:37;;;;;;;;;4.00;4.00;;;;;-147.17;100.00;-15917.19;5016604;28;51234;-63
2023/05/16 02:10:03;;;;;;;;;5.67;4.00;;;;;-147.17;100.00;-15917.19;5012998;28;51147;-64
2023/05/16 02:12:29;;;;;;;;;3.33;2.00;;;;;-147.17;100.00;-15917.19;5004334;28;52808;-63
2023/05/16 02:14:54;;;;;;;;;6.33;3.67;;;;;-147.17;100.00;-15917.19;5028751;28;51020;-63
2023/05/16 02:17:20;;;;;;;;;3.50;2.75;;;;;-147.17;100.00;-15917.19;5009706;28;51858;-64
2023/05/16 02:19:45;;;;;;;;;5.00;3.50;;;;;-147.17;100.00;-15917.19;5009557;28;51245;-62
2023/05/16 02:22:10;;;;;;;;;2.00;2.00;;;;;-147.17;100.00;-15917.19;5008936;28;51806;-62
2023/05/16 02:24:36;;;;;;;;;2.50;2.25;;;;;-147.17;100.00;-15917.19;5007031;28;51367;-62
2023/05/16 02:27:01;;;;;;;;;3.33;2.67;;;;;-147.17;100.00;-15917.19;5011344;28;51096;-62
2023/05/16 02:29:26;;;;;;;;;3.00;2.00;;;;;-147.17;100.00;-15917.19;5004958;28;51371;-62
2023/05/16 02:31:52;;;;;;;;;3.00;3.00;;;;;-147.17;100.00;-15917.19;5008972;28;52163;-63
2023/05/16 02:34:17;;;;;;;;;3.67;3.00;;;;;-147.17;100.00;-15917.19;5007601;28;51038;-61
2023/05/16 02:36:42;;;;;;;;;3.00;2.00;;;;;-147.17;100.00;-15917.19;5003035;28;50863;-62
2023/05/16 02:39:09;;;;;;;;;2.33;2.00;;;;;-147.17;100.00;-15917.19;5001209;28;50828;-62
2023/05/16 02:41:34;;;;;;;;;4.00;4.00;;;;;-147.17;100.00;-15917.19;5008431;28;52769;-62
2023/05/16 02:43:59;;;;;;;;;3.00;3.00;;;;;-147.17;100.00;-15917.19;5008579;28;51007;-62
2023/05/16 02:46:27;;;;;;;;;2.00;2.00;;;;;-147.17;100.00;-15917.19;5002871;28;51027;-62
2023/05/16 02:48:53;;;;;;;;;2.00;2.00;;;;;-147.17;100.00;-15917.19;5001452;28;51317;-63
2023/05/16 02:51:21;;;;;;;;;3.00;2.00;;;;;-147.17;100.00;-15917.19;5001711;28;51923;-63
2023/05/16 02:53:46;;;;;;;;;2.00;2.00;;;;;-147.17;100.00;-15917.19;5006304;28;51010;-62
2023/05/16 02:56:12;;;;;;;;;3.00;2.75;;;;;-147.17;100.00;-15917.19;5014705;28;51234;-62
2023/05/16 02:58:37;;;;;;;;;3.00;3.00;;;;;-147.17;100.00;-15917.19;5010054;28;51105;-63
2023/05/16 03:01:03;;;;;;;;;3.33;3.00;;;;;-147.17;100.00;-15917.19;5013847;28;51949;-63
2023/05/16 03:03:28;;;;;;;;;4.33;2.00;;;;;-147.17;100.00;-15917.19;4998180;28;51046;-63
2023/05/16 03:05:54;;;;;;;;;3.00;2.00;;;;;-147.17;100.00;-15917.19;5002592;28;51152;-62
2023/05/16 03:08:19;;;;;;;;;3.00;3.00;;;;;-147.17;100.00;-15917.19;5000959;28;51229;-63
2023/05/16 03:10:45;;;;;;;;;3.00;2.33;;;;;-147.17;100.00;-15917.19;5009504;28;51733;-62
2023/05/16 03:13:10;;;;;;;;;2.75;2.75;;;;;-147.17;100.00;-15917.19;5006955;28;51152;-63
2023/05/16 03:15:36;;;;;;;;;2.00;2.00;;;;;-147.17;100.00;-15917.19;5008642;28;51094;-63
2023/05/16 03:18:02;;;;;;;;;3.00;3.00;;;;;-147.17;100.00;-15917.19;5001299;28;51054;-62
2023/05/16 03:20:28;;;;;;;;;2.00;2.00;;;;;-147.17;100.00;-15917.19;5010564;28;51114;-62
2023/05/16 03:22:53;;;;;;;;;2.00;2.00;;;;;-147.17;100.00;-15917.19;5002728;28;51176;-61
2023/05/16 03:25:18;;;;;;;;;2.00;2.00;;;;;-147.17;100.00;-15917.19;5005727;28;52029;-61
2023/05/16 03:27:44;;;;;;;;;2.00;2.00;;;;;-147.17;100.00;-15917.19;5000258;28;51456;-62
2023/05/16 03:30:10;;;;;;;;;4.33;3.67;;;;;-147.17;100.00;-15917.19;5010255;28;53561;-62
2023/05/16 03:32:36;;;;;;;;;3.00;2.00;;;;;-147.17;100.00;-15917.19;5007539;28;51097;-62
2023/05/16 03:35:02;;;;;;;;;5.00;3.00;;;;;-147.17;100.00;-15917.19;5003352;28;51160;-62
2023/05/16 03:37:28;;;;;;;;;2.75;2.00;;;;;-147.17;100.00;-15917.19;4998929;28;51262;-61
2023/05/16 03:39:53;;;;;;;;;4.00;2.00;;;;;-147.17;100.00;-15917.19;5010806;28;52130;-62
2023/05/16 03:42:18;;;;;;;;;5.00;3.67;;;;;-147.17;100.00;-15917.19;5007823;28;50993;-62
2023/05/16 03:44:44;;;;;;;;;3.00;3.00;;;;;-147.17;100.00;-15917.19;5000818;28;51065;-62
2023/05/16 03:47:10;;;;;;;;;3.25;2.25;;;;;-147.17;100.00;-15917.19;5003666;28;51069;-63
2023/05/16 03:49:38;;;;;;;;;4.00;3.00;;;;;-147.17;100.00;-15917.19;5004036;28;51904;-63
2023/05/16 03:52:04;;;;;;;;;3.33;3.00;;;;;-147.17;100.00;-15917.19;5009075;28;51058;-62
2023/05/16 03:54:29;;;;;;;;;4.00;3.50;;;;;-147.17;100.00;-15917.19;5006263;28;51191;-62
2023/05/16 03:56:55;;;;;;;;;6.00;3.25;;;;;-147.17;100.00;-15917.19;5008177;28;51065;-63
2023/05/16 03:59:20;;;;;;;;;3.50;3.25;;;;;-147.17;100.00;-15917.19;5006317;28;51013;-62
2023/05/16 04:01:46;;;;;;;;;2.67;2.67;;;;;-147.17;100.00;-15917.19;5006715;28;51403;-62
2023/05/16 04:04:12;;;;;;;;;5.00;3.00;;;;;-147.17;100.00;-15917.19;5009527;28;51201;-63
2023/05/16 04:06:37;;;;;;;;;2.00;1.75;;;;;-147.17;100.00;-15917.19;5012030;28;51076;-63
2023/05/16 04:09:02;;;;;;;;;2.33;2.00;;;;;-147.17;100.00;-15917.19;5007023;28;51726;-61
2023/05/16 04:11:28;;;;;;;;;4.25;3.00;;;;;-147.17;100.00;-15917.19;5010162;28;50871;-65
2023/05/16 04:13:53;;;;;;;;;3.00;3.00;;;;;-147.17;100.00;-15917.19;5009442;28;51314;-65
2023/05/16 04:16:18;;;;;;;;;5.50;3.75;;;;;-147.17;100.00;-15917.19;5004525;28;51291;-62
2023/05/16 04:18:44;;;;;;;;;5.00;3.67;;;;;-147.17;100.00;-15917.19;5005560;28;51733;-63
2023/05/16 04:21:13;;;;;;;;;2.25;2.25;;;;;-147.17;100.00;-15917.19;5000914;28;51206;-63
2023/05/16 04:23:39;;;;;;;;;6.00;3.25;;;;;-147.17;100.00;-15917.19;5003775;28;51220;-63
2023/05/16 04:26:04;;;;;;;;;2.00;2.00;;;;;-147.17;100.00;-15917.19;5008151;28;51099;-63
2023/05/16 04:28:30;;;;;;;;;5.00;2.25;;;;;-147.17;100.00;-15917.19;5007236;28;53834;-62
2023/05/16 04:30:55;;;;;;;;;3.67;3.00;;;;;-147.17;100.00;-15917.19;5008868;28;50994;-62
2023/05/16 04:33:20;;;;;;;;;2.75;2.00;;;;;-147.17;100.00;-15917.19;5005330;28;51112;-63
2023/05/16 04:35:47;;;;;;;;;2.25;2.25;;;;;-147.17;100.00;-15917.19;5004781;28;51237;-63
2023/05/16 04:38:12;;;;;;;;;2.33;2.00;;;;;-147.17;100.00;-15917.19;5008887;28;51808;-66
2023/05/16 04:40:40;;;;;;;;;5.00;2.00;;;;;-147.17;100.00;-15917.19;5007972;28;50962;-62
2023/05/16 04:43:05;;;;;;;;;3.00;3.00;;;;;-147.17;100.00;-15917.19;4996761;28;51327;-63
2023/05/16 04:45:30;;;;;;;;;5.33;3.67;;;;;-147.17;100.00;-15917.19;5006721;28;51103;-63
2023/05/16 04:47:56;;;;;;;;;4.67;4.33;;;;;-147.17;100.00;-15917.19;5004283;28;52383;-62
2023/05/16 04:50:21;;;;;;;;;6.00;3.67;;;;;-147.17;100.00;-15917.19;5011353;28;51144;-63
2023/05/16 04:52:47;;;;;;;;;4.00;4.00;;;;;-147.17;100.00;-15917.19;5005503;28;51049;-62
2023/05/16 04:55:12;;;;;;;;;4.00;2.67;;;;;-147.17;100.00;-15917.19;5011022;28;51199;-63
2023/05/16 04:57:37;;;;;;;;;2.00;2.00;;;;;-147.17;100.00;-15917.19;5009537;28;54104;-63
2023/05/16 05:00:06;;;;;;;;;3.00;1.33;;;;;-147.17;100.00;-15917.19;5001663;28;51089;-62
2023/05/16 05:02:32;;;;;;;;;2.00;2.00;;;;;-147.17;100.00;-15917.19;5010491;28;51246;-62
2023/05/16 05:04:57;;;;;;;;;3.33;1.33;;;;;-147.17;100.00;-15917.19;5015599;28;51280;-62
2023/05/16 05:07:22;;;;;;;;;7.25;5.00;;;;;-147.17;100.00;-15917.19;5014817;28;52294;-63
2023/05/16 05:09:48;;;;;;;;;3.25;3.00;;;;;-147.17;100.00;-15917.19;5005975;28;51106;-63
2023/05/16 05:12:13;;;;;;;;;4.00;4.00;;;;;-147.17;100.00;-15917.19;5010096;28;51338;-62
2023/05/16 05:14:38;;;;;;;;;2.67;2.33;;;;;-147.17;100.00;-15917.19;5006138;28;51596;-63
2023/05/16 05:17:04;;;;;;;;;3.00;3.00;;;;;-147.17;100.00;-15917.19;5016075;28;51328;-62
2023/05/16 05:19:30;;;;;;;;;4.00;3.67;;;;;-147.17;100.00;-15917.19;5012288;28;52119;-61
2023/05/16 05:21:55;;;;;;;;;5.67;4.67;;;;;-147.17;100.00;-15917.19;5017583;28;52233;-62
2023/05/16 05:24:20;;;;;;;;;4.00;3.00;;;;;-147.17;100.00;-15917.19;5017816;28;51343;-61
2023/05/16 05:26:46;;;;;;;;;3.67;3.33;;;;;-147.17;100.00;-15917.19;5008629;28;52153;-62
2023/05/16 05:29:11;;;;;;;;;4.00;3.67;;;;;-147.17;100.00;-15917.19;5010215;28;51293;-62
2023/05/16 05:31:37;;;;;;;;;2.00;2.00;;;;;-147.17;100.00;-15917.19;5016210;28;51178;-62
2023/05/16 05:34:02;;;;;;;;;6.33;6.00;;;;;-147.17;100.00;-15917.19;5002817;28;51175;-63
2023/05/16 05:36:27;;;;;;;;;3.00;3.00;;;;;-147.17;100.00;-15917.19;4999787;28;51011;-62
2023/05/16 05:38:53;;;;;;;;;3.00;3.00;;;;;-147.17;100.00;-15917.19;5013915;28;51081;-62
2023/05/16 05:41:18;;;;;;;;;3.67;3.67;;;;;-147.17;100.00;-15917.19;4998254;28;51239;-63
2023/05/16 05:43:43;;;;;;;;;2.00;2.00;;;;;-147.17;100.00;-15917.19;4998013;28;51277;-62
2023/05/16 05:46:09;;;;;;;;;3.67;3.00;;;;;-147.17;100.00;-15917.19;5033369;28;53262;-62
2023/05/16 05:48:34;;;;;;;;;5.00;4.67;;;;;-147.17;100.00;-15917.19;5009555;28;51024;-62
2023/05/16 05:51:00;;;;;;;;;4.00;3.00;;;;;-147.17;100.00;-15917.19;5001578;28;51143;-62
2023/05/16 05:53:26;;;;;;;;;3.00;2.00;;;;;-147.17;100.00;-15917.19;5010770;28;51186;-62
2023/05/16 05:55:51;;;;;;;;;4.33;3.00;;;;;-147.17;100.00;-15917.19;5029971;28;52976;-63
2023/05/16 05:58:17;;;;;;;;;3.00;3.00;;;;;-147.17;100.00;-15917.19;5014208;28;51254;-62
2023/05/16 06:00:42;;;;;;;;;4.00;3.67;;;;;-147.17;100.00;-15917.19;5014361;28;50910;-62
2023/05/16 06:03:08;;;;;;;;;3.33;2.00;;;;;-147.17;100.00;-15915.72;5013437;28;51470;-63
2023/05/16 06:05:33;;;;;;;;;3.67;3.67;;;;;-147.17;100.00;-14924.75;5010815;28;51118;-62
2023/05/16 06:07:58;;;;;;;;;2.67;2.00;;;;;-147.17;100.00;-12941.97;5013760;28;51082;-62
2023/05/16 06:10:24;;;;;;;;;6.00;4.00;;;;;-147.17;100.00;-12446.13;5005977;28;51064;-63
2023/05/16 06:12:49;;;;;;;;;3.00;2.00;;;;;-147.17;100.00;-10958.19;5005285;28;51226;-63
2023/05/16 06:15:14;;;;;;;;;5.00;5.00;;;;;-147.17;100.00;-9965.91;5007327;28;51210;-63
2023/05/16 06:17:40;;;;;;;;;5.67;3.33;;;;;-147.17;100.00;-7732.34;5005890;28;51047;-62
2023/05/16 06:20:07;;;;;;;;;2.00;2.00;;;;;-147.17;100.00;-5745.88;5006619;28;51008;-61
2023/05/16 06:22:32;;;;;;;;;3.00;2.00;;;;;-147.17;100.00;-4006.88;5002141;28;51076;-61
2023/05/16 06:24:57;;;;;;;;;4.00;2.67;;;;;-147.17;100.00;-2764.22;5007297;28;51731;-61
2023/05/16 06:27:23;;;;;;;;;2.00;2.00;;;;;-147.17;100.00;-1521.19;5006578;28;51074;-62
2023/05/16 06:29:48;;;;;;;;;3.00;2.00;;;;;-147.17;100.00;717.28;5012084;28;56215;-62
2023/05/16 06:32:13;;;;;;;;;3.00;2.00;;;;;-147.17;100.00;1712.56;5327352;22;52054;-63
2023/05/16 06:34:39;;;;;;;;;4.00;3.33;;;;;-147.17;100.00;7939.00;4989064;28;63710;-62
2023/05/16 06:37:04;;;;;;;;;3.00;1.00;;;;;-147.17;100.00;7939.00;4995490;28;51781;-62
2023/05/16 06:44:40;;;;;;;;;3.00;2.33;;;;;-147.17;100.00;13676.16;5105300;22;51033;-54
2023/05/16 06:47:06;;;;;;;;;2.67;1.67;;;;;-147.17;100.00;12178.69;5005159;28;51837;-54
2023/05/16 06:49:33;;;;;;;;;3.33;3.33;;;;;-147.17;100.00;12927.34;5011594;28;51316;-54
2023/05/16 06:51:58;;;;;;;;;3.33;3.33;;;;;-147.17;100.00;11180.69;5011455;28;51351;-54
2023/05/16 06:56:58;;;;;;;;;1.67;1.67;;;;;-147.17;100.00;17422.38;5000139;22;51701;-62
2023/05/16 06:59:24;;;;;;;;;3.00;3.00;;;;;-147.17;100.00;23173.59;4992457;28;51099;-62
2023/05/16 07:01:50;;;;;;;;;3.00;3.00;;;;;-147.17;100.00;25176.00;4992286;28;51230;-63
2023/05/16 07:04:15;;;;;;;;;1.33;1.33;;;;;-147.17;100.00;27570.84;4993729;28;52485;-63
2023/05/16 07:06:40;;;;;;;;;2.00;2.00;;;;;-147.17;100.00;26510.19;4991681;28;51061;-63
2023/05/16 07:09:06;;;;;;;;;2.00;2.00;;;;;-147.17;100.00;25940.84;4990646;28;54935;-62
2023/05/16 07:11:31;;;;;;;;;2.33;2.00;;;;;-147.17;100.00;28745.31;4984635;28;51170;-62
2023/05/16 07:13:57;;;;;;;;;3.00;2.67;;;;;-147.17;100.00;29086.00;4992395;28;51927;-63
2023/05/16 07:16:23;;;;;;;;;2.67;2.00;;;;;-147.17;100.00;28839.31;4979419;28;55946;-62
2023/05/16 07:18:48;;;;;;;;;3.00;3.00;;;;;-147.17;100.00;30707.50;4990297;28;51078;-62
2023/05/16 07:21:13;;;;;;;;;3.00;1.67;;;;;-147.17;100.00;32169.00;4988896;28;51068;-63
2023/05/16 07:23:39;;;;;;;;;1.33;1.33;;;;;-147.17;100.00;31957.38;4992624;28;52001;-63
2023/05/16 07:26:04;;;;;;;;;4.00;3.67;;;;;-147.17;100.00;31933.88;5007739;28;51103;-64
2023/05/16 07:28:30;;;;;;;;;3.00;2.67;;;;;-147.17;100.00;28860.84;4991737;28;51053;-71
2023/05/16 07:30:57;;;;;;;;;2.67;2.67;;;;;-147.17;100.00;23846.16;4991594;28;51262;-72
2023/05/16 07:33:23;;;;;;;;;3.00;1.33;;;;;-147.17;100.00;31218.78;4985108;28;51093;-72
2023/05/16 07:35:49;;;;;;;;;2.00;2.00;;;;;-147.17;100.00;32131.78;4993541;28;51240;-73
2023/05/16 07:38:14;;;;;;;;;0.00;0.00;;;;;-147.17;100.00;34403.44;4993414;28;51265;-73
2023/05/16 07:40:39;;;;;;;;;2.33;2.00;;;;;-147.17;100.00;35650.59;4992424;28;51293;-70
2023/05/16 07:43:05;;;;;;;;;2.00;2.00;;;;;-147.17;100.00;37916.47;4992668;28;56654;-72
2023/05/16 07:45:30;;;;;;;;;1.67;1.00;;;;;-147.17;100.00;39522.00;4993618;28;51194;-72
2023/05/16 07:47:55;;;;;;;;;2.33;2.33;;;;;-147.17;100.00;40016.72;4991838;28;51186;-70
2023/05/16 07:50:21;;;;;;;;;2.00;2.00;;;;;-147.17;100.00;38948.78;4991336;28;51169;-70
2023/05/16 07:52:46;;;;;;;;;3.00;2.00;;;;;-147.17;100.00;39987.28;4992253;28;51973;-70
2023/05/16 07:55:12;;;;;;;;;4.00;2.33;;;;;-147.17;100.00;39398.31;4991343;28;51189;-71
2023/05/16 07:57:38;;;;;;;;;2.00;1.00;;;;;-147.17;100.00;40056.00;4992203;28;51270;-72
2023/05/16 08:00:03;;;;;;;;;3.00;2.00;;;;;-147.17;100.00;39520.03;4994016;28;51311;-71
2023/05/16 08:02:29;;;;;;;;;2.00;2.00;;;;;-147.17;100.00;38993.94;4991816;28;52737;-71
2023/05/16 08:04:57;;;;;;;;;4.00;3.33;;;;;-147.17;100.00;39005.72;4988062;28;51282;-71
2023/05/16 08:07:23;;;;;;;;;1.33;1.00;;;;;-147.17;100.00;39942.13;4989645;28;51035;-71
2023/05/16 08:09:48;;;;;;;;;3.00;3.00;;;;;-147.17;100.00;39622.13;4994097;28;51195;-72
2023/05/16 08:12:14;;;;;;;;;2.00;2.00;;;;;-147.17;100.00;40006.91;4993129;28;51758;-72
2023/05/16 08:14:39;;;;;;;;;2.33;2.33;;;;;-147.17;100.00;39959.78;4987728;28;51095;-72
2023/05/16 08:17:04;;;;;;;;;4.00;2.67;;;;;-147.17;100.00;39111.72;4991398;28;51224;-72
2023/05/16 08:19:31;;;;;;;;;4.33;4.00;;;;;-147.17;100.00;40949.47;4992506;28;51171;-72
2023/05/16 08:21:57;;;;;;;;;2.00;2.00;;;;;-147.17;100.00;40812.00;4988426;28;51945;-70
2023/05/16 08:24:22;;;;;;;;;6.67;6.67;;;;;-147.17;100.00;40639.19;4990812;28;51212;-71
2023/05/16 08:26:48;;;;;;;;;3.00;2.00;;;;;-147.17;100.00;40670.59;4992015;28;50918;-72
2023/05/16 08:29:13;;;;;;;;;4.00;2.00;;;;;-147.17;100.00;40882.69;4991650;28;52664;-70
2023/05/16 08:31:38;;;;;;;;;2.00;2.00;;;;;-147.17;100.00;41739.00;5008077;28;54027;-70
2023/05/16 08:34:05;;;;;;;;;2.00;1.00;;;;;-147.17;100.00;42422.63;4988725;28;51152;-71
2023/05/16 08:36:33;;;;;;;;;2.00;1.00;;;;;-147.17;100.00;41369.75;4987502;28;51129;-71
2023/05/16 08:38:59;;;;;;;;;3.00;2.00;;;;;-147.17;100.00;40195.41;4990772;28;51206;-71
2023/05/16 08:41:24;;;;;;;;;1.00;1.00;;;;;-147.17;100.00;39525.91;4992564;28;50999;-68
2023/05/16 08:43:50;;;;;;;;;3.33;2.67;;;;;-147.17;100.00;39359.06;5267025;22;52463;-63
2023/05/16 08:46:21;;;;;;;;;2.00;2.00;;;;;-147.17;100.00;41136.03;4990237;28;51082;-63
2023/05/16 08:48:51;;;;;;;;;2.00;1.00;;;;;-147.17;100.00;41935.44;5278348;22;53100;-57
2023/05/16 08:51:18;;;;;;;;;2.00;2.00;;;;;-147.17;100.00;42768.44;5010278;28;51285;-57
2023/05/16 08:53:49;;;;;;;;;2.67;1.33;;;;;-147.17;100.00;43078.88;5008085;28;51062;-54
2023/05/16 08:56:16;;;;;;;;;4.00;3.00;;;;;-147.17;100.00;42568.03;5000862;28;51185;-56
2023/05/16 08:58:42;;;;;;;;;1.00;1.00;;;;;-147.17;100.00;42432.47;5005400;28;51086;-55
2023/05/16 09:01:08;;;;;;;;;3.67;3.33;;;;;-147.17;100.00;42752.72;5011105;28;51028;-55
2023/05/16 09:03:37;;;;;;;;;3.00;2.00;;;;;-147.17;100.00;42819.50;5011020;28;51124;-56
2023/05/16 09:06:06;;;;;;;;;3.67;3.67;;;;;-147.17;100.00;42595.53;5009205;28;51194;-55
2023/05/16 09:08:31;;;;;;;;;2.00;1.00;;;;;-147.17;100.00;42257.63;5010220;28;51348;-56
2023/05/16 09:10:57;;;;;;;;;3.33;3.00;;;;;-147.17;100.00;42186.91;5006107;28;51853;-55
2023/05/16 09:13:24;;;;;;;;;4.00;3.00;;;;;-147.17;100.00;41951.16;5011996;28;51053;-54
2023/05/16 09:16:08;;;;;;;;;2.00;2.00;;;;;-147.17;100.00;41617.22;5010414;28;51154;-54
2023/05/16 09:18:35;;;;;;;;;1.67;1.67;;;;;-147.17;100.00;41149.78;5010689;28;51376;-56
2023/05/16 09:21:00;;;;;;;;;3.00;1.00;;;;;-147.17;100.00;40599.91;5010656;28;53173;-58
2023/05/16 09:23:48;;;;;;;;;1.67;1.33;;;;;-147.17;100.00;40089.38;5372272;22;51263;-63
2023/05/16 09:26:14;;;;;;;;;2.00;1.00;;;;;-147.17;100.00;39747.75;4982156;28;51331;-64
2023/05/16 09:28:40;;;;;;;;;2.00;1.00;;;;;-147.17;100.00;39223.59;4984274;28;51212;-63
2023/05/16 09:31:19;;;;;;;;;1.00;1.00;;;;;-147.17;100.00;39614.25;4969272;28;52658;-63
2023/05/16 09:33:45;;;;;;;;;1.00;0.00;;;;;-147.17;100.00;39429.72;4977149;28;51281;-64
2023/05/16 09:36:10;;;;;;;;;2.00;2.00;;;;;-147.17;100.00;40590.09;4989824;28;51072;-64
2023/05/16 09:38:36;;;;;;;;;1.00;1.00;;;;;-147.17;100.00;40902.34;4991088;28;51268;-63
2023/05/16 09:41:02;;;;;;;;;1.67;1.00;;;;;-147.17;100.00;41253.88;4983465;28;50964;-64
2023/05/16 09:43:27;;;;;;;;;2.00;1.00;;;;;-147.17;100.00;40912.16;4986335;28;51025;-63
2023/05/16 09:45:54;;;;;;;;;0.33;0.33;;;;;-147.17;100.00;41314.75;4991170;28;51260;-64
2023/05/16 09:48:20;;;;;;;;;1.33;1.33;;;;;-147.17;100.00;40959.28;4993724;28;51103;-63
2023/05/16 09:50:51;;;;;;;;;2.33;2.00;;;;;-147.17;100.00;40509.59;4978110;28;52999;-64
2023/05/16 09:53:25;;;;;;;;;1.00;1.00;;;;;-147.17;100.00;40731.47;4981759;28;51279;-63
2023/05/16 09:56:02;;;;;;;;;6.33;5.33;;;;;-147.17;100.00;41703.66;4978699;28;50969;-64
2023/05/16 09:58:31;;;;;;;;;3.33;2.33;;;;;-147.17;100.00;42351.91;4983682;28;51083;-63
2023/05/16 10:00:58;;;;;;;;;8.00;4.00;;;;;-147.17;100.00;43019.94;4977895;28;51703;-61
2023/05/16 10:03:24;;;;;;;;;2.00;2.00;;;;;-147.17;100.00;43436.50;4984340;28;50977;-62
2023/05/16 10:05:51;;;;;;;;;2.00;2.00;;;;;-147.17;100.00;43432.56;4974651;28;51067;-62
2023/05/16 10:08:21;;;;;;;;;2.00;1.00;;;;;-147.17;100.00;43611.41;4979649;28;51373;-62
2023/05/16 10:10:50;;;;;;;;;0.00;0.00;;;;;-147.17;100.00;43436.50;4975771;28;51239;-63
2023/05/16 10:13:21;;;;;;;;;3.67;3.67;;;;;-147.17;100.00;42900.06;4974521;28;51080;-62
2023/05/16 10:15:48;;;;;;;;;2.00;2.00;;;;;-147.17;100.00;42401.03;4962893;28;51109;-62
2023/05/16 10:18:17;;;;;;;;;2.00;2.00;;;;;-147.17;100.00;42289.06;4994815;28;50951;-62
2023/05/16 10:20:44;;;;;;;;;1.00;1.00;;;;;-147.17;100.00;42373.53;4994274;28;50998;-62
2023/05/16 10:23:16;;;;;;;;;2.00;1.00;;;;;-147.17;100.00;42705.56;4993906;28;51049;-62
2023/05/16 10:25:43;;;;;;;;;1.67;1.67;;;;;-147.17;100.00;43326.47;4994426;28;51032;-63
2023/05/16 10:28:09;;;;;;;;;2.00;1.00;;;;;-147.17;100.00;43688.03;4994318;28;50998;-63
2023/05/16 10:30:39;;;;;;;;;3.00;3.00;;;;;-147.17;100.00;44136.16;4993360;28;51018;-62
2023/05/16 10:33:05;;;;;;;;;4.00;4.00;;;;;-147.17;100.00;44344.50;4975059;28;50918;-62
2023/05/16 10:35:31;;;;;;;;;3.67;3.33;;;;;-147.17;100.00;44773.00;4974765;28;51171;-63
2023/05/16 10:37:59;;;;;;;;;3.00;3.00;;;;;-147.17;100.00;45276.28;4975052;28;51179;-63
2023/05/16 10:40:26;;;;;;;;;0.33;0.33;;;;;-147.17;100.00;45437.50;4985416;28;51048;-63
2023/05/16 10:43:00;;;;;;;;;2.67;2.00;;;;;-147.17;100.00;45447.31;4985558;28;51040;-62
2023/05/16 10:45:26;;;;;;;;;3.67;3.67;;;;;-147.17;100.00;45465.03;4956770;28;51157;-62
2023/05/16 10:47:55;;;;;;;;;3.00;2.00;;;;;-147.17;100.00;45343.13;4983424;28;54081;-63
2023/05/16 10:50:34;;;;;;;;;1.00;1.00;;;;;-147.17;100.00;45248.75;4973683;28;51749;-62
2023/05/16 10:53:31;;;;;;;;;1.33;1.33;;;;;-147.17;100.00;45292.00;4974222;28;51063;-62
2023/05/16 10:55:59;;;;;;;;;3.67;3.67;;;;;-147.17;100.00;45158.31;4983456;28;51178;-63
2023/05/16 10:58:40;;;;;;;;;8.00;7.67;;;;;-147.17;100.00;45028.56;4993466;28;51023;-63
2023/05/16 11:01:27;;;;;;;;;1.00;1.00;;;;;-147.17;100.00;45498.44;4993366;28;52719;-63
2023/05/16 11:03:55;;;;;;;;;3.00;3.00;;;;;-147.17;100.00;45669.50;4993135;28;50983;-62
2023/05/16 11:06:22;;;;;;;;;3.00;3.00;;;;;-147.17;100.00;45858.25;4993354;28;50973;-64
2023/05/16 11:09:09;;;;;;;;;1.00;1.00;;;;;-147.17;100.00;46139.47;4992428;28;51319;-63
2023/05/16 11:11:48;;;;;;;;;4.00;4.00;;;;;-147.17;100.00;46589.81;4983168;28;52918;-62